createdAt,value
2023-01-11T00:00:48.098Z,3.13
2023-01-11T00:03:15.440Z,6.18
2023-01-11T00:05:43.934Z,3.25
2023-01-11T00:08:11.338Z,6.00
2023-01-11T00:10:38.393Z,10.73
2023-01-11T00:13:05.155Z,7.22
2023-01-11T00:15:31.981Z,7.32
2023-01-11T00:17:58.734Z,4.25
2023-01-11T00:20:25.645Z,3.90
2023-01-11T00:22:52.689Z,6.20
2023-01-11T00:25:19.697Z,1.73
2023-01-11T00:27:49.236Z,7.40
2023-01-11T00:30:17.395Z,2.88
2023-01-11T00:32:44.547Z,6.72
2023-01-11T00:35:11.359Z,9.82
2023-01-11T00:37:38.265Z,3.75
2023-01-11T00:40:05.608Z,4.55
2023-01-11T00:42:50.841Z,3.72
2023-01-11T00:45:36.378Z,3.28
2023-01-11T00:48:05.844Z,2.95
2023-01-11T00:50:37.008Z,3.50
2023-01-11T00:53:04.621Z,4.63
2023-01-11T00:55:34.514Z,3.03
2023-01-11T00:58:01.826Z,3.75
2023-01-11T01:00:30.410Z,4.22
2023-01-11T01:02:57.425Z,1.92
2023-01-11T01:05:24.812Z,5.43
2023-01-11T01:07:51.672Z,1.35
2023-01-11T01:10:19.064Z,1.65
2023-01-11T01:13:05.144Z,5.70
2023-01-11T01:15:32.962Z,5.13
2023-01-11T01:17:59.851Z,2.60
2023-01-11T01:20:27.242Z,2.33
2023-01-11T01:22:53.948Z,3.05
2023-01-11T01:25:20.912Z,1.50
2023-01-11T01:27:47.638Z,6.03
2023-01-11T01:30:14.857Z,2.60
2023-01-11T01:32:41.540Z,5.72
2023-01-11T01:35:08.800Z,5.30
2023-01-11T01:37:35.490Z,3.83
2023-01-11T01:40:02.309Z,1.85
2023-01-11T01:42:29.066Z,2.60
2023-01-11T01:45:23.964Z,1.90
2023-01-11T01:48:02.587Z,2.45
2023-01-11T01:50:49.075Z,3.83
2023-01-11T01:53:31.694Z,4.18
2023-01-11T01:56:01.603Z,2.83
2023-01-11T01:58:34.922Z,1.58
2023-01-11T02:01:20.426Z,2.20
2023-01-11T02:03:47.795Z,3.17
2023-01-11T02:06:14.722Z,4.50
2023-01-11T02:08:45.634Z,1.48
2023-01-11T02:11:29.869Z,3.70
2023-01-11T02:14:07.166Z,3.83
2023-01-11T02:16:34.395Z,5.78
2023-01-11T02:19:01.628Z,4.28
2023-01-11T02:21:55.970Z,6.60
2023-01-11T02:24:52.029Z,3.78
2023-01-11T02:27:47.464Z,2.63
2023-01-11T02:30:45.728Z,5.63
2023-01-11T02:33:34.204Z,2.72
2023-01-11T02:36:26.066Z,4.88
2023-01-11T02:39:09.565Z,10.57
2023-01-11T02:42:36.776Z,3.60
2023-01-11T02:45:10.164Z,9.57
2023-01-11T02:48:00.417Z,1.42
2023-01-11T02:50:40.097Z,2.67
2023-01-11T02:53:12.970Z,7.15
2023-01-11T02:55:44.530Z,8.05
2023-01-11T02:58:12.596Z,7.82
2023-01-11T03:00:40.939Z,4.18
2023-01-11T03:03:18.199Z,2.13
2023-01-11T03:05:57.323Z,3.75
2023-01-11T03:08:44.762Z,14.13
2023-01-11T03:11:37.214Z,2.50
2023-01-11T03:14:36.726Z,2.25
2023-01-11T03:17:25.140Z,6.32
2023-01-11T03:20:05.508Z,4.57
2023-01-11T03:22:52.463Z,4.32
2023-01-11T03:25:48.908Z,2.95
2023-01-11T03:28:34.371Z,7.15
2023-01-11T03:31:01.102Z,4.50
2023-01-11T03:33:45.984Z,4.60
2023-01-11T03:36:37.047Z,4.93
2023-01-11T03:39:20.383Z,5.90
2023-01-11T03:41:50.069Z,5.20
2023-01-11T03:44:18.240Z,3.40
2023-01-11T03:46:49.558Z,9.38
2023-01-11T03:49:22.264Z,5.18
2023-01-11T03:51:50.846Z,2.47
2023-01-11T03:54:23.293Z,2.15
2023-01-11T03:57:10.390Z,3.60
2023-01-11T03:59:38.338Z,5.38
2023-01-11T04:02:05.530Z,11.65
2023-01-11T04:04:32.259Z,9.70
2023-01-11T04:06:58.993Z,25.98
2023-01-11T04:09:25.797Z,10.98
2023-01-11T04:11:52.423Z,14.35
2023-01-11T04:14:19.050Z,3.17
2023-01-11T04:16:45.689Z,14.68
2023-01-11T04:19:12.321Z,18.35
2023-01-11T04:21:38.939Z,10.82
2023-01-11T04:24:05.813Z,3.90
2023-01-11T04:26:33.138Z,4.22
2023-01-11T04:28:59.828Z,4.25
2023-01-11T04:31:26.679Z,5.22
2023-01-11T04:33:53.391Z,1.65
2023-01-11T04:36:20.158Z,4.28
2023-01-11T04:38:46.928Z,4.50
2023-01-11T04:41:32.338Z,2.00
2023-01-11T04:43:59.127Z,2.65
2023-01-11T04:46:25.913Z,1.25
2023-01-11T04:48:52.811Z,1.90
2023-01-11T04:51:19.507Z,1.42
2023-01-11T04:53:49.162Z,1.20
2023-01-11T04:56:16.211Z,0.95
2023-01-11T04:58:43.143Z,3.70
2023-01-11T05:01:16.725Z,7.03
2023-01-11T05:03:45.245Z,1.60
2023-01-11T05:06:13.013Z,1.63
2023-01-11T05:08:40.086Z,1.63
2023-01-11T05:11:08.163Z,3.15
2023-01-11T05:13:44.258Z,2.10
2023-01-11T05:16:24.878Z,1.67
2023-01-11T05:18:54.175Z,2.40
2023-01-11T05:21:23.627Z,0.85
2023-01-11T05:23:50.846Z,0.65
2023-01-11T05:26:23.307Z,2.17
2023-01-11T05:28:50.663Z,2.78
2023-01-11T05:31:17.968Z,1.58
2023-01-11T05:33:45.039Z,2.83
2023-01-11T05:36:20.403Z,0.70
2023-01-11T05:38:48.981Z,3.80
2023-01-11T05:41:17.245Z,3.10
2023-01-11T05:44:03.692Z,1.00
2023-01-11T05:46:32.321Z,1.75
2023-01-11T05:48:59.141Z,1.35
2023-01-11T05:51:35.671Z,0.88
2023-01-11T05:54:06.009Z,1.77
2023-01-11T05:56:32.902Z,4.00
2023-01-11T05:58:59.695Z,1.13
2023-01-11T06:01:27.006Z,1.48
2023-01-11T06:03:53.789Z,0.65
2023-01-11T06:06:21.379Z,1.77
2023-01-11T06:08:48.542Z,5.18
2023-01-11T06:11:15.893Z,4.13
2023-01-11T06:13:43.204Z,1.80
2023-01-11T06:16:12.477Z,3.00
2023-01-11T06:18:44.376Z,4.13
2023-01-11T06:21:12.047Z,2.75
2023-01-11T06:23:41.160Z,0.65
2023-01-11T06:26:11.496Z,1.98
2023-01-11T06:28:38.662Z,3.67
2023-01-11T06:31:06.382Z,3.78
2023-01-11T06:33:33.977Z,1.27
2023-01-11T06:36:07.417Z,2.97
2023-01-11T06:38:34.566Z,7.10
2023-01-11T06:41:02.876Z,7.20
2023-01-11T06:43:30.913Z,1.83
2023-01-11T06:45:59.049Z,1.13
2023-01-11T06:48:26.610Z,4.43
2023-01-11T06:50:56.078Z,2.55
2023-01-11T06:53:24.957Z,2.30
2023-01-11T06:55:54.277Z,1.33
2023-01-11T06:58:23.381Z,1.85
2023-01-11T07:00:52.049Z,2.50
2023-01-11T07:03:20.520Z,1.00
2023-01-11T07:05:47.637Z,1.30
2023-01-11T07:08:14.327Z,0.55
2023-01-11T07:10:42.196Z,2.15
2023-01-11T07:13:09.677Z,0.95
2023-01-11T07:15:36.481Z,1.70
2023-01-11T07:18:03.729Z,3.47
2023-01-11T07:20:30.465Z,0.70
2023-01-11T07:22:59.287Z,3.85
2023-01-11T07:25:27.811Z,1.77
2023-01-11T07:28:02.266Z,2.00
2023-01-11T07:30:31.229Z,3.35
2023-01-11T07:32:59.286Z,3.97
2023-01-11T07:35:28.913Z,1.13
2023-01-11T07:37:56.034Z,2.85
2023-01-11T07:40:22.687Z,1.67
2023-01-11T07:43:13.848Z,6.15
2023-01-11T07:45:46.377Z,2.72
2023-01-11T07:48:14.537Z,4.93
2023-01-11T07:50:44.502Z,4.82
2023-01-11T07:53:13.150Z,1.20
2023-01-11T07:55:40.851Z,0.98
2023-01-11T07:58:10.719Z,1.83
2023-01-11T08:00:37.492Z,2.60
2023-01-11T08:03:04.551Z,2.08
2023-01-11T08:05:31.430Z,1.50
2023-01-11T08:07:58.321Z,1.08
2023-01-11T08:10:24.981Z,4.25
2023-01-11T08:13:10.286Z,3.17
2023-01-11T08:15:37.073Z,2.47
2023-01-11T08:18:05.723Z,0.85
2023-01-11T08:20:32.671Z,1.25
2023-01-11T08:23:03.969Z,3.60
2023-01-11T08:25:31.115Z,1.02
2023-01-11T08:28:03.700Z,0.52
2023-01-11T08:30:30.537Z,2.22
2023-01-11T08:32:57.624Z,2.28
2023-01-11T08:35:25.659Z,0.98
2023-01-11T08:37:52.987Z,1.30
2023-01-11T08:40:21.660Z,5.68
2023-01-11T08:42:49.703Z,1.88
2023-01-11T08:45:16.504Z,2.58
2023-01-11T08:47:43.230Z,2.33
2023-01-11T08:50:10.628Z,2.03
2023-01-11T08:52:37.428Z,1.33
2023-01-11T08:55:07.577Z,5.68
2023-01-11T08:57:35.245Z,5.25
2023-01-11T09:00:03.693Z,8.23
2023-01-11T09:02:30.380Z,20.95
2023-01-11T09:04:57.177Z,18.70
2023-01-11T09:07:24.121Z,11.32
2023-01-11T09:09:52.017Z,25.77
2023-01-11T09:12:18.971Z,4.50
2023-01-11T09:14:45.682Z,12.70
2023-01-11T09:17:12.305Z,6.88
2023-01-11T09:19:38.979Z,7.30
2023-01-11T09:22:05.600Z,2.35
2023-01-11T09:24:32.234Z,3.10
2023-01-11T09:27:00.184Z,1.83
2023-01-11T09:29:26.886Z,1.50
2023-01-11T09:31:53.599Z,1.90
2023-01-11T09:34:21.064Z,9.25
2023-01-11T09:36:48.961Z,3.33
2023-01-11T09:39:18.810Z,3.30
2023-01-11T09:42:11.139Z,3.13
2023-01-11T09:44:57.337Z,8.27
2023-01-11T09:47:32.453Z,2.00
2023-01-11T09:50:02.305Z,16.00
2023-01-11T09:52:40.976Z,8.10
2023-01-11T09:55:25.172Z,22.98
2023-01-11T09:58:28.415Z,11.15
2023-01-11T10:00:55.151Z,4.25
2023-01-11T10:04:06.003Z,7.28
2023-01-11T10:06:58.573Z,5.50
2023-01-11T10:18:41.723Z,2.95
2023-01-11T10:19:37.556Z,5.38
2023-01-11T10:22:32.727Z,3.80
2023-01-11T10:25:18.800Z,2.22
2023-01-11T10:28:01.550Z,4.00
2023-01-11T10:30:48.757Z,7.20
2023-01-11T10:33:33.430Z,2.90
2023-01-11T10:36:27.160Z,4.00
2023-01-11T10:39:24.936Z,0.80
2023-01-11T10:42:03.831Z,5.43
2023-01-11T10:44:40.487Z,3.40
2023-01-11T10:47:16.367Z,1.85
2023-01-11T10:49:56.461Z,1.83
2023-01-11T10:52:35.359Z,2.33
2023-01-11T10:55:12.971Z,15.25
2023-01-11T10:58:06.954Z,2.30
2023-01-11T11:00:43.434Z,2.88
2023-01-11T11:03:48.890Z,2.05
2023-01-11T11:06:23.867Z,0.95
2023-01-11T11:09:23.287Z,1.70
2023-01-11T11:11:57.672Z,1.00
2023-01-11T11:14:46.884Z,1.15
2023-01-11T11:17:24.062Z,3.70
2023-01-11T11:19:51.997Z,1.67
2023-01-11T11:22:19.879Z,1.70
2023-01-11T11:24:52.034Z,3.45
2023-01-11T11:27:18.652Z,3.40
2023-01-11T11:29:54.134Z,0.63
2023-01-11T11:32:43.015Z,0.93
2023-01-11T11:35:40.589Z,1.95
2023-01-11T11:38:16.599Z,1.20
2023-01-11T11:40:43.273Z,2.78
2023-01-11T11:43:24.413Z,2.58
2023-01-11T11:46:03.401Z,1.30
2023-01-11T11:48:32.985Z,1.15
2023-01-11T11:51:03.188Z,2.65
2023-01-11T11:53:32.916Z,3.15
2023-01-11T11:56:06.299Z,1.75
2023-01-11T11:58:33.345Z,3.13
2023-01-11T12:01:00.284Z,2.28
2023-01-11T12:03:32.154Z,1.42
2023-01-11T12:06:02.221Z,1.02
2023-01-11T12:08:31.513Z,2.13
2023-01-11T12:11:01.698Z,2.08
2023-01-11T12:13:33.153Z,5.78
2023-01-11T12:16:02.944Z,3.60
2023-01-11T12:18:42.884Z,1.50
2023-01-11T12:21:20.163Z,0.82
2023-01-11T12:23:47.957Z,0.43
2023-01-11T12:26:34.892Z,3.08
2023-01-11T12:29:25.198Z,1.48
2023-01-11T12:32:09.996Z,0.30
2023-01-11T12:35:14.112Z,1.33
2023-01-11T12:37:55.801Z,0.70
2023-01-11T12:40:46.683Z,1.27
2023-01-11T12:43:38.759Z,0.88
2023-01-11T12:46:26.124Z,1.67
2023-01-11T12:48:59.308Z,2.78
2023-01-11T12:52:00.109Z,0.77
2023-01-11T12:54:51.578Z,0.82
2023-01-11T12:57:32.829Z,0.73
2023-01-11T13:00:18.077Z,0.65
2023-01-11T13:02:53.649Z,0.40
2023-01-11T13:05:44.946Z,0.70
2023-01-11T13:08:24.732Z,1.13
2023-01-11T13:11:13.137Z,0.80
2023-01-11T13:14:02.470Z,0.70
2023-01-11T13:16:49.434Z,0.70
2023-01-11T13:19:47.938Z,1.33
2023-01-11T13:22:19.263Z,1.92
2023-01-11T13:24:51.397Z,0.90
2023-01-11T13:27:22.418Z,0.30
2023-01-11T13:29:55.418Z,0.50
2023-01-11T13:32:30.166Z,2.05
2023-01-11T13:35:09.418Z,0.52
2023-01-11T13:37:56.704Z,0.60
2023-01-11T13:40:35.509Z,0.30
2023-01-11T13:43:37.926Z,1.38
2023-01-11T13:46:31.049Z,1.48
2023-01-11T13:49:23.687Z,1.27
2023-01-11T13:51:56.349Z,1.48
2023-01-11T13:54:52.187Z,0.98
2023-01-11T13:57:54.775Z,1.85
2023-01-11T14:00:52.158Z,3.17
2023-01-11T14:03:36.932Z,3.10
2023-01-11T14:06:31.544Z,1.92
2023-01-11T14:09:29.202Z,0.75
2023-01-11T14:12:25.142Z,1.48
2023-01-11T14:15:18.802Z,0.80
2023-01-11T14:18:09.218Z,4.72
2023-01-11T14:21:10.497Z,3.05
2023-01-11T14:23:54.817Z,0.70
2023-01-11T14:26:49.641Z,1.23
2023-01-11T14:29:45.930Z,0.68
2023-01-11T14:32:42.953Z,2.47
2023-01-11T14:35:27.646Z,2.38
2023-01-11T14:38:40.959Z,5.47
2023-01-11T14:41:26.585Z,8.20
2023-01-11T14:44:22.935Z,2.30
2023-01-11T14:47:11.380Z,7.15
2023-01-11T14:50:14.451Z,7.40
2023-01-11T14:52:43.769Z,2.70
2023-01-11T14:55:24.926Z,8.07
2023-01-11T14:58:21.212Z,3.65
2023-01-11T15:00:47.842Z,3.72
2023-01-11T15:03:18.235Z,4.60
2023-01-11T15:05:47.709Z,4.55
2023-01-11T15:08:14.434Z,6.00
2023-01-11T15:10:52.296Z,8.07
2023-01-11T15:13:26.479Z,8.63
2023-01-11T15:16:28.810Z,4.60
2023-01-11T15:18:56.072Z,4.07
2023-01-11T15:21:26.113Z,6.28
2023-01-11T15:23:55.437Z,6.03
2023-01-11T15:26:25.052Z,10.40
2023-01-11T15:28:58.441Z,14.10
2023-01-11T15:31:49.766Z,3.70
2023-01-11T15:34:48.997Z,11.73
2023-01-11T15:37:19.490Z,3.47
2023-01-11T15:40:02.107Z,6.35
2023-01-11T15:42:50.964Z,7.82
2023-01-11T15:46:02.833Z,4.13
2023-01-11T15:48:39.552Z,14.75
2023-01-11T15:51:24.494Z,8.07
2023-01-11T15:54:03.223Z,4.82
2023-01-11T15:57:04.072Z,7.82
2023-01-11T15:59:57.042Z,12.82
2023-01-11T16:03:04.502Z,12.10
2023-01-11T16:05:39.448Z,9.98
2023-01-11T16:08:29.244Z,30.63
2023-01-11T16:11:03.298Z,18.50
2023-01-11T16:13:39.672Z,6.47
2023-01-11T16:16:21.757Z,9.43
2023-01-11T16:19:00.729Z,14.32
2023-01-11T16:21:36.215Z,19.50
2023-01-11T16:24:07.281Z,11.10
2023-01-11T16:26:36.373Z,18.08
2023-01-11T16:29:17.808Z,7.40
2023-01-11T16:32:02.894Z,8.43
2023-01-11T16:34:39.122Z,16.20
2023-01-11T16:37:29.324Z,17.55
2023-01-11T16:40:02.854Z,12.48
2023-01-11T16:42:34.344Z,15.13
2023-01-11T16:45:08.374Z,11.47
2023-01-11T16:47:35.207Z,11.05
2023-01-11T16:50:14.249Z,7.57
2023-01-11T16:52:46.435Z,19.90
2023-01-11T16:55:18.257Z,8.32
2023-01-11T16:57:51.255Z,14.73
2023-01-11T17:00:24.237Z,9.23
2023-01-11T17:03:02.186Z,7.35
2023-01-11T17:05:28.861Z,12.68
2023-01-11T17:07:55.577Z,17.40
2023-01-11T17:10:26.038Z,7.93
2023-01-11T17:13:45.994Z,17.80
2023-01-11T17:16:16.276Z,15.80
2023-01-11T17:18:44.033Z,11.82
2023-01-11T17:21:22.492Z,8.40
2023-01-11T17:23:51.596Z,10.38
2023-01-11T17:26:23.026Z,11.13
2023-01-11T17:28:52.683Z,8.47
2023-01-11T17:31:32.186Z,10.85
2023-01-11T17:34:26.461Z,8.80
2023-01-11T17:36:55.183Z,5.88
2023-01-11T17:39:34.764Z,9.00
2023-01-11T17:42:24.541Z,8.07
2023-01-11T17:45:12.875Z,12.25
2023-01-11T17:47:46.429Z,9.60
2023-01-11T17:50:24.719Z,7.35
2023-01-11T17:52:55.395Z,3.53
2023-01-11T17:55:25.043Z,6.07
2023-01-11T17:58:19.994Z,9.20
2023-01-11T18:01:07.611Z,7.10
2023-01-11T18:03:59.416Z,6.05
2023-01-11T18:06:32.683Z,13.50
2023-01-11T18:09:01.873Z,13.60
2023-01-11T18:11:38.915Z,13.75
2023-01-11T18:14:20.245Z,16.80
2023-01-11T18:16:56.063Z,11.27
2023-01-11T18:19:44.456Z,16.25
2023-01-11T18:22:32.403Z,24.70
2023-01-11T18:25:01.961Z,28.67
2023-01-11T18:27:33.932Z,13.93
2023-01-11T18:30:07.604Z,18.25
2023-01-11T18:32:37.881Z,11.00
2023-01-11T18:35:12.057Z,19.48
2023-01-11T18:37:38.724Z,11.80
2023-01-11T18:40:06.133Z,10.02
2023-01-11T18:42:33.895Z,19.92
2023-01-11T18:45:00.516Z,8.98
2023-01-11T18:47:29.657Z,12.07
2023-01-11T18:49:57.133Z,10.15
2023-01-11T18:52:27.645Z,19.85
2023-01-11T18:54:55.666Z,12.00
2023-01-11T18:57:23.541Z,11.02
2023-01-11T18:59:54.155Z,25.20
2023-01-11T19:02:24.095Z,15.45
2023-01-11T19:04:51.359Z,8.60
2023-01-11T19:07:18.158Z,8.70
2023-01-11T19:09:45.183Z,16.70
2023-01-11T19:12:13.280Z,20.02
2023-01-11T19:14:40.497Z,9.30
2023-01-11T19:17:11.718Z,14.55
2023-01-11T19:19:38.578Z,9.57
2023-01-11T19:22:06.284Z,12.57
2023-01-11T19:24:33.179Z,7.03
2023-01-11T19:26:59.903Z,15.85
2023-01-11T19:29:26.902Z,14.80
2023-01-11T19:31:55.609Z,12.82
2023-01-11T19:34:22.898Z,11.27
2023-01-11T19:36:50.468Z,9.73
2023-01-11T19:39:17.233Z,9.00
2023-01-11T19:42:02.962Z,16.33
2023-01-11T19:44:34.921Z,16.27
2023-01-11T19:47:11.261Z,11.80
2023-01-11T19:49:39.960Z,16.27
2023-01-11T19:52:13.411Z,9.65
2023-01-11T19:54:43.865Z,16.17
2023-01-11T19:57:14.455Z,8.35
2023-01-11T19:59:41.914Z,17.35
2023-01-11T20:02:14.341Z,14.60
2023-01-11T20:04:41.615Z,13.63
2023-01-11T20:07:09.965Z,21.65
2023-01-11T20:09:39.542Z,9.32
2023-01-11T20:12:08.165Z,10.80
2023-01-11T20:14:35.350Z,9.23
2023-01-11T20:17:02.458Z,9.38
2023-01-11T20:19:29.267Z,24.33
2023-01-11T20:21:56.540Z,5.72
2023-01-11T20:24:29.550Z,11.73
2023-01-11T20:26:57.758Z,16.38
2023-01-11T20:29:24.571Z,19.65
2023-01-11T20:31:51.465Z,12.65
2023-01-11T20:34:18.316Z,12.52
2023-01-11T20:36:45.308Z,12.43
2023-01-11T20:39:12.321Z,13.13
2023-01-11T20:41:48.873Z,15.00
2023-01-11T20:44:28.108Z,22.55
2023-01-11T20:46:58.720Z,17.00
2023-01-11T20:49:28.833Z,15.15
2023-01-11T20:51:56.432Z,11.35
2023-01-11T20:54:23.454Z,13.50
2023-01-11T20:56:50.357Z,10.15
2023-01-11T20:59:19.827Z,13.90
2023-01-11T21:01:48.175Z,12.20
2023-01-11T21:04:16.476Z,9.38
2023-01-11T21:06:45.523Z,9.38
2023-01-11T21:09:15.052Z,15.50
2023-01-11T21:11:41.882Z,17.25
2023-01-11T21:14:11.947Z,19.88
2023-01-11T21:16:42.776Z,7.68
2023-01-11T21:19:11.930Z,8.65
2023-01-11T21:21:38.773Z,15.52
2023-01-11T21:24:06.187Z,8.93
2023-01-11T21:26:34.706Z,17.27
2023-01-11T21:29:03.806Z,5.38
2023-01-11T21:31:32.965Z,12.13
2023-01-11T21:34:00.366Z,12.98
2023-01-11T21:36:29.327Z,13.40
2023-01-11T21:38:57.273Z,6.10
2023-01-11T21:41:45.098Z,9.27
2023-01-11T21:44:13.692Z,8.30
2023-01-11T21:46:41.001Z,16.75
2023-01-11T21:49:08.220Z,13.35
2023-01-11T21:51:35.029Z,14.60
2023-01-11T21:54:09.846Z,19.75
2023-01-11T21:56:36.912Z,13.38
2023-01-11T21:59:04.126Z,11.27
2023-01-11T22:01:31.114Z,17.08
2023-01-11T22:03:57.897Z,11.65
2023-01-11T22:06:24.781Z,12.63
2023-01-11T22:08:51.618Z,17.70
2023-01-11T22:11:18.728Z,9.88
2023-01-11T22:13:45.616Z,13.48
2023-01-11T22:16:15.047Z,9.02
2023-01-11T22:18:43.524Z,18.02
2023-01-11T22:21:12.892Z,16.77
2023-01-11T22:23:40.283Z,12.02
2023-01-11T22:26:12.439Z,11.52
2023-01-11T22:28:58.427Z,10.15
2023-01-11T22:31:27.300Z,6.97
2023-01-11T22:33:54.424Z,10.65
2023-01-11T22:36:23.011Z,5.20
2023-01-11T22:51:29.118Z,9.35
2023-01-11T22:53:56.616Z,16.75
2023-01-11T22:56:25.798Z,11.65
2023-01-11T22:58:53.593Z,17.27
2023-01-11T23:01:35.255Z,15.80
2023-01-11T23:04:02.723Z,7.37
2023-01-11T23:06:34.604Z,17.52
2023-01-11T23:09:01.611Z,12.80
2023-01-11T23:11:50.003Z,7.90
2023-01-11T23:14:19.944Z,11.38
2023-01-11T23:16:49.143Z,19.25
2023-01-11T23:19:18.662Z,9.57
2023-01-11T23:21:46.905Z,6.70
2023-01-11T23:24:16.336Z,16.85
2023-01-11T23:26:44.064Z,9.80
2023-01-11T23:29:10.984Z,21.15
2023-01-11T23:31:38.104Z,9.02
2023-01-11T23:34:07.765Z,10.98
2023-01-11T23:36:37.126Z,13.10
2023-01-11T23:39:09.719Z,6.45
2023-01-11T23:41:55.124Z,9.23
2023-01-11T23:44:22.722Z,12.15
2023-01-11T23:47:09.473Z,16.17
2023-01-11T23:49:36.281Z,14.98
2023-01-11T23:52:03.397Z,7.10
2023-01-11T23:54:32.212Z,25.15
2023-01-11T23:57:00.306Z,18.25
2023-01-11T23:59:27.249Z,8.77
